Station: MURRAY BRIDGE AP

  Atmospheric Gas Attenuation - ITU Rec 676-11   --------------- db/100km ---------------
Date Time Temp RH % AH g/m3 Dew Point Wind Direction Speed kph Gust kph Barometer mB Rainfall Since 9am 24GHz 47GHz 76GHz 122GHz 134GHz 241GHz
28 14:00 23 32 6.58 5.5 13 24 1016.7 0 14.9 20.7 28.7 75.0 65.0 222.6
28 13:50 25 29 6.68 5.9 9 11 1016.9 0 15.1 20.4 28.4 74.1 64.5 221.1
28 13:40 23.9 28 6.06 4.6 15 17 1017.1 0 13.8 19.8 26.8 69.7 58.8 200.8
28 13:30 23.7 30 6.42 5.2 9 15 1017.1 0 14.6 20.4 28.0 73.0 62.8 214.8
28 13:20 22.7 33 6.67 5.6 9 11 1017.3 0 15.1 20.9 29.2 76.1 66.3 227.0
28 13:10 23.7 31 6.63 5.5 9 13 1017.4 0 15.0 20.6 28.7 74.8 65.1 222.8
28 13:00 23.4 29 6.1 4.3 13 20 1017.5 0 13.9 20.0 27.1 70.5 59.6 203.6
28 12:50 22 31 6.02 4.1 9 9 1017.8 0 13.8 20.2 27.3 71.0 59.8 204.1
28 12:40 21.6 38 7.21 6.7 15 19 1017.9 0 16.3 21.9 31.4 82.1 73.3 251.4
28 12:30 22.2 37 7.26 6.8 9 13 1018 0 16.4 21.9 31.4 81.9 73.3 251.6
28 12:20 22.4 37 7.35 7.1 9 11 1018.4 0 16.6 21.9 31.6 82.6 74.2 254.6
28 12:10 22.8 38 7.72 7.7 19 24 1018.5 0 17.3 22.4 32.7 85.6 78.0 268.1
28 12:00 21.3 39 7.27 6.8 11 15 1018.7 0 16.4 22.1 31.8 83.0 74.3 254.9
28 11:50 22 41 7.96 8.1 11 15 1018.9 0 17.9 22.9 33.9 88.7 81.6 280.5
28 11:40 21.1 43 7.92 8.3 13 17 1019.1 0 17.8 23.1 34.1 89.3 82.0 282.0
28 11:30 21.2 43 7.97 8.2 11 19 1019.1 0 17.9 23.1 34.3 89.7 82.5 283.7
28 11:20 21.3 43 8.01 8.3 11 13 1019.3 0 18.0 23.2 34.4 90.0 82.9 285.1
28 11:10 20.1 48 8.34 8.9 4 7 1019.5 0 18.7 24.0 36.1 94.6 88.1 303.3
28 11:00 20.3 48 8.44 8.9 7 15 1019.5 0 18.9 24.1 36.4 95.3 89.1 306.7
28 10:50 19.8 48 8.2 8.5 11 13 1019.7 0 18.5 23.9 35.7 93.6 86.8 298.5
28 10:40 18.9 50 8.1 8.2 7 9 1019.8 0 18.3 23.9 35.8 93.6 86.6 297.6
28 10:30 19.1 52 8.52 9.2 9 15 1019.8 0 19.2 24.5 37.2 97.6 91.5 314.9
28 10:20 18.5 53 8.38 8.7 7 13 1019.9 0 18.9 24.5 37.0 96.9 90.5 311.2
28 10:10 18.3 57 8.91 9.6 11 13 1020 0 20.0 25.3 39.1 102.5 97.3 335.2
28 10:00 17.8 57 8.65 9.2 11 20 1020 0 19.5 25.1 38.3 100.5 94.6 325.8
28 09:50 17.7 56 8.45 9 9 11 1020.1 0 19.1 24.8 37.6 98.6 92.3 317.4
28 09:40 16.9 56 8.05 8.2 7 7 1020.2 0 18.3 24.4 36.5 95.5 88.2 303.1
28 09:30 16.8 54 7.72 7.4 9 13 1020.2 0 17.6 23.9 35.3 92.3 84.2 289.1
28 09:20 16.2 58 8 8.1 7 9 1020.3 0 18.2 24.5 36.6 95.9 88.4 303.5
28 09:10 15.8 62 8.35 8.5 7 9 1020.3 0 19.0 25.2 38.1 100.0 93.3 320.7
28 09:00 15.3 67 8.75 9.3 6 9 1020.2 0 19.8 26.0 40.0 104.8 99.0 340.8
28 08:50 14.2 72 8.79 9.3 6 7 1020.3 0.8 20.0 26.4 40.7 106.7 101.0 347.5
28 08:40 13.8 74 8.82 9.3 6 7 1020.3 0.8 20.1 26.5 41.0 107.6 101.9 350.7
28 08:30 13.7 78 9.24 10 7 9 1020.1 0.8 21.0 27.2 42.8 112.3 107.7 370.9
28 08:20 12.5 81 8.91 9.3 6 6 1020.2 0.8 20.3 27.1 42.1 110.4 104.9 360.8
28 08:10 12.3 81 8.8 9.1 7 7 1020.2 0.8 20.1 26.9 41.7 109.4 103.6 356.5
28 08:00 11.4 89 9.14 9.6 4 7 1020 0.8 20.9 27.8 43.6 114.5 109.6 377.1
28 07:50 10.9 92 9.15 9.7 0 0 1020 0.8 20.9 28.0 43.9 115.4 110.4 380.1
28 07:40 10.1 91 8.61 8.7 0 0 1019.9 0.8 19.8 27.3 42.1 110.4 103.9 357.3
28 07:30 9.9 91 8.5 8.5 4 7 1019.8 0.8 19.6 27.1 41.7 109.4 102.7 352.8
28 07:20 9.2 93 8.31 8.2 7 7 1019.7 0.8 19.2 27.0 41.3 108.2 100.9 346.7
28 07:10 8.6 95 8.17 7.8 6 7 1019.6 0.8 18.9 27.0 41.0 107.4 99.8 342.4
28 07:00 7.9 97 7.97 7.5 4 7 1019.4 0.8 18.5 26.8 40.5 106.1 97.8 335.6
28 06:50 7.1 95 7.41 6.4 6 6 1019.4 0.8 17.3 26.1 38.5 100.8 91.0 311.5
28 06:40 6.5 95 7.13 5.8 6 7 1019.4 0.8 16.8 25.8 37.6 98.4 87.8 300.3
28 06:30 6.4 94 7.01 5.5 0 0 1019.2 0.8 16.5 25.6 37.1 97.2 86.2 294.8
28 06:20 6 94 6.83 5.1 0 0 1019.2 0.8 16.1 25.5 36.6 95.7 84.2 287.6
28 06:10 6.2 95 6.99 5.5 0 0 1019.1 0.8 16.5 25.7 37.1 97.2 86.2 294.6
28 06:00 6.5 94 7.05 5.6 2 6 1018.9 0.8 16.6 25.7 37.2 97.5 86.6 296.3
28 05:50 6.1 94 6.87 5.2 6 6 1019 0.8 16.2 25.5 36.7 96.0 84.6 289.1
28 05:40 6.5 93 6.98 5.4 6 6 1019 0.8 16.4 25.6 37.0 96.7 85.7 292.9
28 05:30 5.9 94 6.78 5 2 7 1018.8 0.8 16.0 25.4 36.4 95.2 83.6 285.4
28 05:20 6.6 94 7.1 5.7 7 9 1018.8 0.8 16.7 25.7 37.4 97.9 87.2 298.3
28 05:10 6.7 91 6.92 5.3 6 6 1018.7 0.8 16.3 25.4 36.6 95.7 84.6 289.2
28 04:50 7.2 93 7.3 6.1 0 0 1018.6 0.8 17.1 25.9 37.9 99.4 89.3 305.6
28 04:40 7.2 93 7.3 6.1 0 0 1018.6 0.8 17.1 25.9 37.9 99.4 89.3 305.6
28 04:30 7.7 93 7.54 6.6 2 7 1018.5 0.8 17.6 26.1 38.7 101.4 92.0 315.2
28 04:20 8.1 93 7.74 7 0 0 1018.7 0.8 18.0 26.4 39.4 103.1 94.3 323.3
28 04:10 7.9 94 7.72 7 0 0 1018.8 0.8 18.0 26.4 39.4 103.2 94.3 323.2
28 04:00 8.2 91 7.62 6.9 4 7 1018.7 0.8 17.7 26.1 38.8 101.7 92.5 317.1
28 03:50 8.3 94 7.93 7.4 4 6 1018.8 0.8 18.4 26.6 40.1 105.0 96.7 331.8
28 03:40 8.4 93 7.89 7.3 2 6 1018.8 0.8 18.3 26.5 39.8 104.4 96.0 329.4
28 03:30 9.7 92 8.48 8.5 6 7 1018.7 0.8 19.5 27.1 41.7 109.3 102.6 352.5
28 03:20 9.3 93 8.36 8.3 6 6 1018.9 0.8 19.3 27.1 41.4 108.5 101.4 348.4
28 03:10 10.1 92 8.7 8.9 9 11 1018.9 0.8 20.0 27.4 42.4 111.3 105.1 361.4
28 03:00 9.6 93 8.52 8.6 11 15 1018.8 0.8 19.6 27.2 41.9 109.9 103.3 354.9
28 02:50 9.7 93 8.58 8.7 11 13 1018.9 0.8 19.7 27.3 42.1 110.5 104.0 357.4
28 02:40 9.8 93 8.63 8.8 13 15 1019 0.8 19.8 27.4 42.3 110.9 104.6 359.4
28 02:30 10 93 8.74 9 11 15 1019 0.8 20.1 27.5 42.6 111.9 105.8 363.9
28 02:20 10.1 93 8.8 9.1 13 13 1019.1 0.6 20.2 27.6 42.8 112.4 106.5 366.4
28 02:10 10 93 8.74 9 15 17 1019.2 0.6 20.1 27.5 42.6 111.9 105.8 364.0
28 02:00 9.5 93 8.47 8.5 7 11 1019.2 0.6 19.5 27.2 41.8 109.5 102.7 353.0
28 01:50 9.5 95 8.65 8.7 4 6 1019.4 0.6 19.9 27.5 42.5 111.6 105.3 361.9
28 01:40 10.4 93 8.97 9.4 11 13 1019.6 0.6 20.5 27.8 43.4 114.0 108.6 373.5
28 01:30 10.6 92 8.98 9.4 13 17 1019.6 0.6 20.6 27.7 43.4 113.8 108.4 373.0
28 01:20 10.7 92 9.04 9.5 13 15 1019.9 0.6 20.7 27.8 43.6 114.4 109.1 375.6
28 01:10 10.7 92 9.04 9.5 13 17 1019.9 0.6 20.7 27.8 43.6 114.4 109.1 375.6
28 01:00 10.6 92 8.98 9.4 17 22 1019.9 0.6 20.6 27.8 43.4 113.8 108.4 373.1
28 00:50 10.7 92 9.04 9.5 17 20 1020 0.6 20.7 27.8 43.6 114.4 109.2 375.6
28 00:40 10.6 92 8.98 9.4 17 19 1020 0.6 20.6 27.8 43.4 113.9 108.4 373.1
28 00:29 10.7 92 9.04 9.5 17 20 1020.1 0.6 20.7 27.8 43.6 114.4 109.2 375.6
28 00:20 10.7 92 9.04 9.5 15 15 1020.2 0.6 20.7 27.8 43.6 114.4 109.2 375.7
28 00:10 10.8 92 9.1 9.6 17 17 1020.3 0.6 20.8 27.9 43.8 115.0 109.9 378.2
28 00:00 10.9 92 9.15 9.7 15 17 1020.4 0.6 20.9 28.0 44.0 115.4 110.5 380.2
27 23:50 10.8 92 9.1 9.6 15 15 1020.3 0.6 20.8 27.9 43.8 115.0 109.9 378.2
27 23:40 11 91 9.11 9.6 13 15 1020.4 0.6 20.8 27.9 43.7 114.8 109.7 377.7
27 23:30 11 92 9.21 9.8 13 15 1020.5 0.6 21.0 28.0 44.2 115.9 111.2 382.7
27 23:20 11.2 91 9.23 9.8 13 17 1020.5 0.6 21.1 28.0 44.1 115.9 111.2 382.7
27 23:10 11.3 91 9.28 9.9 17 17 1020.5 0.6 21.2 28.1 44.3 116.3 111.7 384.6
27 23:00 11 92 9.21 9.8 15 17 1020.5 0.6 21.0 28.0 44.2 115.9 111.2 382.7
27 22:50 11.3 91 9.28 9.9 17 17 1020.4 0.6 21.2 28.1 44.3 116.3 111.7 384.6
27 22:40 11.4 91 9.34 10 15 17 1020.4 0.6 21.3 28.1 44.5 116.8 112.4 387.1
27 22:30 11.3 92 9.39 10.1 17 20 1020.4 0.6 21.4 28.3 44.8 117.5 113.3 390.0
27 22:20 11.3 92 9.39 10.1 17 19 1020.3 0.6 21.4 28.3 44.8 117.5 113.2 390.0
27 22:10 11.2 92 9.33 10 17 19 1020.4 0.6 21.3 28.2 44.6 117.0 112.6 387.6
27 22:00 11.2 91 9.23 9.8 11 13 1020.5 0.6 21.1 28.0 44.1 115.9 111.2 382.7
27 21:50 11.3 91 9.28 9.9 13 13 1020.5 0.6 21.2 28.1 44.3 116.3 111.7 384.6
27 21:40 11.4 91 9.34 10 13 15 1020.6 0.6 21.3 28.1 44.5 116.8 112.4 387.1
27 21:30 11.8 89 9.37 10 17 20 1020.4 0.6 21.3 28.1 44.4 116.6 112.2 386.5
27 21:20 12 89 9.49 10.2 17 20 1020.3 0.6 21.6 28.2 44.8 117.6 113.6 391.4

Last Refresh: 28-Oct-2020 14:12:42

Most of the information presented on this site is sourced from the Bureau of Meteorology.  Copyright in all material sourced from the Bureau of Meteorology resides with the Commonwealth of Australia.